LIML 200120Z 09006KT CAVOK 20/12 Q1026 NOSIG LIML 200050Z 09009KT CAVOK 20/13 Q1026 NOSIG LIML 200020Z 07006KT CAVOK 21/14 Q1026 NOSIG LIML 192350Z 36003KT CAVOK 20/14 Q1026 NOSIG LIML 192320Z 36002KT CAVOK 20/15 Q1026 NOSIG LIML 192250Z 02001KT CAVOK 21/13 Q1026 NOSIG LIML 192220Z VRB01KT CAVOK 22/14 Q1025 NOSIG LIML 192150Z 16003KT CAVOK 22/13 Q1025 NOSIG LIML 192120Z 17004KT CAVOK 22/13 Q1025 NOSIG LIML 192050Z 18003KT CAVOK 23/13 Q1025 NOSIG LIML 192020Z 15003KT 110V190 CAVOK 23/13 Q1025 NOSIG LIML 191950Z 14004KT 080V160 CAVOK 25/12 Q1025 NOSIG LIML 191920Z 13004KT 090V170 CAVOK 25/12 Q1025 NOSIG LIML 191850Z 13005KT CAVOK 26/12 Q1025 NOSIG LIML 191820Z 15005KT 100V190 CAVOK 26/12 Q1024 NOSIG LIML 191750Z 17003KT 140V200 CAVOK 27/12 Q1024 NOSIG LIML 191720Z 17005KT 120V190 CAVOK 27/12 Q1024 NOSIG LIML 191650Z 14005KT 100V180 CAVOK 27/11 Q1024 NOSIG LIML 191620Z 07005KT 030V100 CAVOK 28/11 Q1024 NOSIG LIML 191550Z 11006KT 030V150 CAVOK 28/11 Q1024 NOSIG LIML 191520Z 16005KT 120V210 CAVOK 28/11 Q1024 NOSIG LIML 191450Z 16005KT 100V200 CAVOK 28/11 Q1024 NOSIG LIML 191420Z 11006KT 070V160 CAVOK 28/11 Q1025 NOSIG LIML 191350Z VRB05KT CAVOK 28/11 Q1025 NOSIG LIML 191320Z 15005KT 090V250 CAVOK 28/10 Q1025 NOSIG LIML 191250Z 18004KT 130V260 CAVOK 27/10 Q1025 NOSIG LIML 191220Z VRB05KT CAVOK 27/10 Q1026 NOSIG LIML 191150Z 10005KT 050V180 CAVOK 26/10 Q1026 NOSIG LIML 191120Z VRB05KT CAVOK 27/10 Q1026 NOSIG LIML 191050Z VRB05KT CAVOK 26/09 Q1026 NOSIG LIML 191020Z 14007KT 110V190 CAVOK 25/09 Q1027 NOSIG LIML 190950Z 09006KT 060V140 CAVOK 25/08 Q1027 NOSIG LIML 190920Z 13007KT 090V180 CAVOK 25/08 Q1027 NOSIG LIML 190850Z 13008KT 080V160 CAVOK 25/06 Q1027 NOSIG LIML 190820Z 10008KT 060V140 CAVOK 24/05 Q1027 NOSIG LIML 190750Z 10007KT 050V150 CAVOK 24/06 Q1027 NOSIG LIML 190720Z 10008KT CAVOK 23/06 Q1027 NOSIG LIML 190650Z 11009KT CAVOK 22/06 Q1027 NOSIG LIML 190620Z 09009KT 060V120 CAVOK 21/07 Q1027 NOSIG LIML 190550Z 07008KT CAVOK 21/08 Q1027 NOSIG LIML 190520Z 08006KT CAVOK 20/08 Q1026 NOSIG LIML 190450Z 08008KT 9999 FEW040 20/08 Q1026 NOSIG LIML 190420Z 07007KT 9999 FEW040 20/08 Q1026 NOSIG LIML 190350Z 08007KT 9999 FEW030 20/08 Q1026 NOSIG LIML 190320Z 07008KT 9999 SCT070 20/08 Q1025 NOSIG LIML 190250Z 08007KT 9999 SCT070 21/08 Q1025 NOSIG LIML 190220Z 08007KT 9999 SCT070 21/08 Q1025 NOSIG LIML 190150Z 07009KT 9999 SCT070 21/08 Q1025 NOSIG LIML 190120Z 08008KT 9999 SCT090 21/09 Q1025 NOSIG LIML 190050Z 07008KT CAVOK 20/10 Q1025 NOSIG LIML 190020Z 08006KT 050V110 CAVOK 21/10 Q1025 NOSIG LIML 182350Z 08007KT 9999 SCT090 20/11 Q1024 NOSIG LIML 182320Z 08008KT CAVOK 21/11 Q1024 NOSIG LIML 182250Z 09008KT 050V120 CAVOK 21/11 Q1024 NOSIG LIML 182220Z 11008KT CAVOK 22/11 Q1024 NOSIG LIML 182150Z 11011KT CAVOK 23/11 Q1024 NOSIG LIML 182120Z 10009KT 070V130 CAVOK 23/11 Q1024 NOSIG LIML 182050Z 11008KT CAVOK 23/12 Q1023 NOSIG LIML 182020Z 11010KT 070V140 CAVOK 24/12 Q1023 NOSIG LIML 181950Z 11009KT CAVOK 24/13 Q1022 NOSIG LIML 181920Z 11009KT 070V130 CAVOK 25/14 Q1022 NOSIG LIML 181850Z 12010KT CAVOK 26/13 Q1022 NOSIG LIML 181820Z 12011KT CAVOK 26/13 Q1021 NOSIG LIML 181750Z 12011KT 080V140 CAVOK 27/14 Q1021 NOSIG LIML 181720Z 11012KT 080V140 CAVOK 27/14 Q1021 NOSIG LIML 181650Z 11012KT 070V140 CAVOK 28/15 Q1021 NOSIG LIML 181620Z 12012KT 090V150 9999 FEW050 28/15 Q1020 NOSIG LIML 181550Z 12012KT 9999 FEW050 28/15 Q1020 NOSIG LIML 181520Z 13012KT 100V160 9999 FEW050 28/15 Q1020 NOSIG LIML 181450Z 10011KT 070V140 9999 SCT050 29/16 Q1020 NOSIG LIML 181420Z 11012KT 9999 SCT050 28/16 Q1021 NOSIG LIML 181350Z 11011KT 080V140 9999 SCT050 29/16 Q1021 NOSIG

METAR Messwerte "MILANO/LINATE" LIML

Zurück zur Übersicht

Ortsname
Ländercode / m ü. NN
Zeit Temperatur Taupunkt Rel.
Luftfeuchte
Luftdruck:
Altimeter
NN
Station
Wind in Beaufort
(Knoten)
Sichtweite
(Meter)
Wolken
(Meter über Grund)
Wettererscheinung
MILANO/LINATE
IT 109
Fr 20.05. 03:20201260 %1026
1026
1013
O 2 (6)>= 10000Nicht signifikant 
MILANO/LINATE
IT 109
Fr 20.05. 02:50201364 %1026
1026
1013
O 3 (9)>= 10000Nicht signifikant 
MILANO/LINATE
IT 109
Fr 20.05. 02:20211464 %1026
1026
1013
ONO 2 (6)>= 10000Nicht signifikant 
MILANO/LINATE
IT 109
Fr 20.05. 01:50201468 %1026
1026
1013
N 2 (3)>= 10000Nicht signifikant 
MILANO/LINATE
IT 109
Fr 20.05. 01:20201573 %1026
1026
1013
N 1 (2)>= 10000Nicht signifikant 
MILANO/LINATE
IT 109
Fr 20.05. 00:50211360 %1026
1026
1013
NNO 1 (1)>= 10000Nicht signifikant 
MILANO/LINATE
IT 109
Fr 20.05. 00:20221460 %1025
1025
1012
Uml 1 (1)>= 10000Nicht signifikant 
MILANO/LINATE
IT 109
Do 19.05. 23:50221357 %1025
1025
1012
SSO 2 (3)>= 10000Nicht signifikant 
MILANO/LINATE
IT 109
Do 19.05. 23:20221357 %1025
1025
1012
S 2 (4)>= 10000Nicht signifikant 
MILANO/LINATE
IT 109
Do 19.05. 22:50231353 %1025
1025
1012
S 2 (3)>= 10000Nicht signifikant 
MILANO/LINATE
IT 109
Do 19.05. 22:20231353 %1025
1025
1012
SSO 2 (3)
OSO - S
>= 10000Nicht signifikant 
MILANO/LINATE
IT 109
Do 19.05. 21:50251244 %1025
1025
1012
SO 2 (4)
O - SSO
>= 10000Nicht signifikant 
MILANO/LINATE
IT 109
Do 19.05. 21:20251244 %1025
1025
1012
SO 2 (4)
O - S
>= 10000Nicht signifikant 
MILANO/LINATE
IT 109
Do 19.05. 20:50261242 %1025
1025
1012
SO 2 (5)>= 10000Nicht signifikant 
MILANO/LINATE
IT 109
Do 19.05. 20:20261242 %1024
1024
1011
SSO 2 (5)
O - S
>= 10000Nicht signifikant 
MILANO/LINATE
IT 109
Do 19.05. 19:50271239 %1024
1024
1011
S 2 (3)
SO - SSW
>= 10000Nicht signifikant 
MILANO/LINATE
IT 109
Do 19.05. 19:20271239 %1024
1024
1011
S 2 (5)
OSO - S
>= 10000Nicht signifikant 
MILANO/LINATE
IT 109
Do 19.05. 18:50271137 %1024
1024
1011
SO 2 (5)
O - S
>= 10000Nicht signifikant 
MILANO/LINATE
IT 109
Do 19.05. 18:20281135 %1024
1023
1011
ONO 2 (5)
NNO - O
>= 10000Nicht signifikant 
MILANO/LINATE
IT 109
Do 19.05. 17:50281135 %1024
1023
1011
OSO 2 (6)
NNO - SSO
>= 10000Nicht signifikant 
MILANO/LINATE
IT 109
Do 19.05. 17:20281135 %1024
1023
1011
SSO 2 (5)
OSO - SSW
>= 10000Nicht signifikant 
MILANO/LINATE
IT 109
Do 19.05. 16:50281135 %1024
1023
1011
SSO 2 (5)
O - SSW
>= 10000Nicht signifikant 
MILANO/LINATE
IT 109
Do 19.05. 16:20281135 %1025
1024
1012
OSO 2 (6)
ONO - SSO
>= 10000Nicht signifikant 
MILANO/LINATE
IT 109
Do 19.05. 15:50281135 %1025
1024
1012
Uml 2 (5)>= 10000Nicht signifikant 
MILANO/LINATE
IT 109
Do 19.05. 15:20281032 %1025
1024
1012
SSO 2 (5)
O - WSW
>= 10000Nicht signifikant 
MILANO/LINATE
IT 109
Do 19.05. 14:50271034 %1025
1025
1012
S 2 (4)
SO - W
>= 10000Nicht signifikant 
MILANO/LINATE
IT 109
Do 19.05. 14:20271034 %1026
1026
1013
Uml 2 (5)>= 10000Nicht signifikant 
MILANO/LINATE
IT 109
Do 19.05. 13:50261037 %1026
1026
1013
O 2 (5)
NO - S
>= 10000Nicht signifikant 
MILANO/LINATE
IT 109
Do 19.05. 13:20271034 %1026
1026
1013
Uml 2 (5)>= 10000Nicht signifikant 
MILANO/LINATE
IT 109
Do 19.05. 12:5026934 %1026
1026
1013
Uml 2 (5)>= 10000Nicht signifikant 
MILANO/LINATE
IT 109
Do 19.05. 12:2025936 %1027
1027
1014
SO 3 (7)
OSO - S
>= 10000Nicht signifikant 
MILANO/LINATE
IT 109
Do 19.05. 11:5025834 %1027
1027
1014
O 2 (6)
ONO - SO
>= 10000Nicht signifikant 
MILANO/LINATE
IT 109
Do 19.05. 11:2025834 %1027
1027
1014
SO 3 (7)
O - S
>= 10000Nicht signifikant 
MILANO/LINATE
IT 109
Do 19.05. 10:5025630 %1027
1027
1014
SO 3 (8)
O - SSO
>= 10000Nicht signifikant 
MILANO/LINATE
IT 109
Do 19.05. 10:2024529 %1027
1027
1014
O 3 (8)
ONO - SO
>= 10000Nicht signifikant 
MILANO/LINATE
IT 109
Do 19.05. 09:5024631 %1027
1027
1014
O 3 (7)
NO - SSO
>= 10000Nicht signifikant 
MILANO/LINATE
IT 109
Do 19.05. 09:2023633 %1027
1027
1014
O 3 (8)>= 10000Nicht signifikant 
MILANO/LINATE
IT 109
Do 19.05. 08:5022635 %1027
1027
1014
OSO 3 (9)>= 10000Nicht signifikant 
MILANO/LINATE
IT 109
Do 19.05. 08:2021740 %1027
1027
1014
O 3 (9)
ONO - OSO
>= 10000Nicht signifikant 
MILANO/LINATE
IT 109
Do 19.05. 07:5021843 %1027
1027
1014
ONO 3 (8)>= 10000Nicht signifikant 
MILANO/LINATE
IT 109
Do 19.05. 07:2020846 %1026
1026
1013
O 2 (6)>= 10000Nicht signifikant 
MILANO/LINATE
IT 109
Do 19.05. 06:5020846 %1026
1026
1013
O 3 (8)>= 10000Leicht bewölkt (1200) 
MILANO/LINATE
IT 109
Do 19.05. 06:2020846 %1026
1026
1013
ONO 3 (7)>= 10000Leicht bewölkt (1200) 
MILANO/LINATE
IT 109
Do 19.05. 05:5020846 %1026
1026
1013
O 3 (7)>= 10000Leicht bewölkt (910) 
MILANO/LINATE
IT 109
Do 19.05. 05:2020846 %1025
1025
1012
ONO 3 (8)>= 10000Wolkig (2100) 
MILANO/LINATE
IT 109
Do 19.05. 04:5021843 %1025
1025
1012
O 3 (7)>= 10000Wolkig (2100) 
MILANO/LINATE
IT 109
Do 19.05. 04:2021843 %1025
1025
1012
O 3 (7)>= 10000Wolkig (2100) 
MILANO/LINATE
IT 109
Do 19.05. 03:5021843 %1025
1025
1012
ONO 3 (9)>= 10000Wolkig (2100) 
MILANO/LINATE
IT 109
Do 19.05. 03:2021946 %1025
1025
1012
O 3 (8)>= 10000Wolkig (2700) 
MILANO/LINATE
IT 109
Do 19.05. 02:50201053 %1025
1025
1012
ONO 3 (8)>= 10000Nicht signifikant 
MILANO/LINATE
IT 109
Do 19.05. 02:20211049 %1025
1025
1012
O 2 (6)
NO - OSO
>= 10000Nicht signifikant 
MILANO/LINATE
IT 109
Do 19.05. 01:50201156 %1024
1024
1011
O 3 (7)>= 10000Wolkig (2700) 
MILANO/LINATE
IT 109
Do 19.05. 01:20211153 %1024
1024
1011
O 3 (8)>= 10000Nicht signifikant 
MILANO/LINATE
IT 109
Do 19.05. 00:50211153 %1024
1024
1011
O 3 (8)
NO - OSO
>= 10000Nicht signifikant 
MILANO/LINATE
IT 109
Do 19.05. 00:20221150 %1024
1024
1011
OSO 3 (8)>= 10000Nicht signifikant 
MILANO/LINATE
IT 109
Mi 18.05. 23:50231147 %1024
1024
1011
OSO 4 (11)>= 10000Nicht signifikant 
MILANO/LINATE
IT 109
Mi 18.05. 23:20231147 %1024
1024
1011
O 3 (9)
ONO - SO
>= 10000Nicht signifikant 
MILANO/LINATE
IT 109
Mi 18.05. 22:50231250 %1023
1023
1010
OSO 3 (8)>= 10000Nicht signifikant 
MILANO/LINATE
IT 109
Mi 18.05. 22:20241247 %1023
1023
1010
OSO 3 (10)
ONO - SO
>= 10000Nicht signifikant 
MILANO/LINATE
IT 109
Mi 18.05. 21:50241350 %1022
1022
1009
OSO 3 (9)>= 10000Nicht signifikant 
MILANO/LINATE
IT 109
Mi 18.05. 21:20251450 %1022
1022
1009
OSO 3 (9)
ONO - SO
>= 10000Nicht signifikant 
MILANO/LINATE
IT 109
Mi 18.05. 20:50261345 %1022
1022
1009
OSO 3 (10)>= 10000Nicht signifikant 
MILANO/LINATE
IT 109
Mi 18.05. 20:20261345 %1021
1021
1008
OSO 4 (11)>= 10000Nicht signifikant 
MILANO/LINATE
IT 109
Mi 18.05. 19:50271445 %1021
1020
1008
OSO 4 (11)
O - SO
>= 10000Nicht signifikant 
MILANO/LINATE
IT 109
Mi 18.05. 19:20271445 %1021
1020
1008
OSO 4 (12)
O - SO
>= 10000Nicht signifikant 
MILANO/LINATE
IT 109
Mi 18.05. 18:50281545 %1021
1020
1008
OSO 4 (12)
ONO - SO
>= 10000Nicht signifikant 
MILANO/LINATE
IT 109
Mi 18.05. 18:20281545 %1020
1019
1007
OSO 4 (12)
O - SSO
>= 10000Leicht bewölkt (1500) 
MILANO/LINATE
IT 109
Mi 18.05. 17:50281545 %1020
1019
1007
OSO 4 (12)>= 10000Leicht bewölkt (1500) 
MILANO/LINATE
IT 109
Mi 18.05. 17:20281545 %1020
1019
1007
SO 4 (12)
O - SSO
>= 10000Leicht bewölkt (1500) 
MILANO/LINATE
IT 109
Mi 18.05. 16:50291645 %1020
1019
1007
O 4 (11)
ONO - SO
>= 10000Wolkig (1500) 
MILANO/LINATE
IT 109
Mi 18.05. 16:20281648 %1021
1020
1008
OSO 4 (12)>= 10000Wolkig (1500) 
MILANO/LINATE
IT 109
Mi 18.05. 15:50291645 %1021
1020
1008
OSO 4 (11)
O - SO
>= 10000Wolkig (1500) 

Altimeter: Einstellung am Altimeter (Höhenmesser), die Höhe 0 muss auf diesen Luftdruckwert zeigen, damit das Gerät die Stationshöhe richtig anzeigt.

NN: Luftdruck reduziert auf "Normal Null", auf Meereshöhe, dieser von der Temperatur abhängige Wert wird bisweilen unkorrekt einfach als "Luftdruck" bezeichnet. Eigentlich nur eine fiktive Größe, die es erlaubt, Stationen auf unterschiedlichen Höhen miteinander zu vergleichen.

Station: Realer Luftdruck an der Station.